Latest Weather Observations for Derby

IDW60801

Issued at 1:33 pm WST Sunday 26 February 2017 (issued every 30 minutes, with the page automatically refreshed every 10 minutes)

About weather observations | Map of weather stations | Latest weather observations for WA | Other Formats
Station Details ID: 003032 Name: DERBY AERO Lat: -17.37 Lon: 123.66 Height: 6.2 m
Data from the previous 72 hours. | See also: Recent months at Derby
Date/Time
WST
Temp
°C
App
Temp
°C
Dew
Point
°C
Rel
Hum
%
Delta-T
°C
Wind Press
QNH
hPa
Press
MSL
hPa
Rain since
9am
mm
Dir  Spd
km/h
Gust
km/h
Spd
kts
Gust
kts
26/01:30pm 31.7 35.6 24.8 67 4.9 W 13 17 7 9 1007.7 1007.7 0.0
26/01:00pm 31.7 35.9 25.3 69 4.5 WSW 13 19 7 10 1007.9 1007.9 0.0
26/12:30pm 32.2 37.0 26.3 71 4.2 WSW 13 17 7 9 1008.2 1008.2 0.0
26/12:00pm 31.9 36.3 25.0 67 4.9 NW 11 15 6 8 1008.5 1008.5 0.0
26/11:30am 31.1 36.2 25.0 70 4.3 NW 7 13 4 7 1008.9 1008.9 0.0
26/11:00am 30.4 35.5 25.5 75 3.5 NNW 9 15 5 8 1009.2 1009.2 0.0
26/10:30am 29.4 33.6 24.7 76 3.3 N 11 15 6 8 1009.5 1009.5 0.0
26/10:00am 28.7 33.4 24.9 80 2.7 NE 9 17 5 9 1009.4 1009.4 0.0
26/09:30am 27.9 32.6 24.9 84 2.1 E 9 13 5 7 1009.6 1009.6 0.0
26/09:00am 26.9 31.6 24.9 89 1.4 E 9 13 5 7 1009.6 1009.6 30.4
26/08:30am 26.3 31.2 24.7 91 1.1 E 7 9 4 5 1009.3 1009.3 30.4
26/08:00am 25.5 30.0 24.6 95 0.6 E 9 15 5 8 1009.4 1009.4 30.4
26/07:30am 25.2 28.5 24.5 96 0.5 E 15 19 8 10 1009.2 1009.2 30.4
26/07:00am 25.1 28.7 24.4 96 0.5 ESE 13 17 7 9 1009.1 1009.1 30.2
26/06:30am 25.0 29.3 24.3 96 0.5 E 9 13 5 7 1008.7 1008.7 30.0
26/06:00am 25.0 29.3 24.3 96 0.5 E 9 11 5 6 1008.2 1008.2 30.0
26/05:30am 24.9 29.2 24.2 96 0.5 ENE 9 13 5 7 1008.0 1008.0 30.0
26/05:00am 24.8 28.1 23.9 95 0.6 E 13 17 7 9 1007.6 1007.6 29.8
26/04:30am 24.9 27.9 24.0 95 0.6 E 15 17 8 9 1007.7 1007.7 28.8
26/04:00am 24.9 27.5 24.0 95 0.6 E 17 20 9 11 1007.5 1007.5 27.4
26/03:30am 24.8 27.6 24.3 97 0.3 E 17 24 9 13 1007.4 1007.4 26.4
26/03:00am 24.2 27.8 23.7 97 0.3 ESE 11 15 6 8 1008.0 1008.0 25.8
26/02:30am 24.0 26.6 23.3 96 0.5 SE 15 17 8 9 1007.8 1007.8 25.6
26/02:00am 23.8 27.7 23.0 95 0.5 SSW 7 11 4 6 1008.8 1008.8 24.8
26/01:30am 23.9 27.8 22.5 92 0.9 SSE 6 7 3 4 1008.4 1008.4 24.0
26/01:00am 23.9 26.7 22.3 91 1.1 E 11 17 6 9 1008.4 1008.4 23.0
26/12:30am 23.7 24.4 21.6 88 1.4 E 20 32 11 17 1007.8 1007.8 22.8
26/12:00am 25.0 23.1 22.1 84 1.9 E 35 61 19 33 1008.7 1008.7 22.8
 
Date/Time
WST
Temp
°C
App
Temp
°C
Dew
Point
°C
Rel
Hum
%
Delta-T
°C
Wind Press
QNH
hPa
Press
MSL
hPa
Rain since
9am
mm
Dir  Spd
km/h
Gust
km/h
Spd
kts
Gust
kts
25/11:55pm 25.9 26.6 23.0 84 2.0 ENE 24 61 13 33 1008.8 1008.8 22.8
25/11:53pm 26.4 28.8 24.2 88 1.5 ENE 19 44 10 24 1008.9 1008.9 22.8
25/11:30pm 27.2 31.9 25.6 91 1.1 E 11 15 6 8 1008.8 1008.8 22.8
25/11:00pm 27.2 32.3 25.6 91 1.1 NE 9 13 5 7 1008.7 1008.7 22.8
25/10:30pm 27.2 31.9 25.6 91 1.1 ENE 11 15 6 8 1009.0 1009.0 22.8
25/10:00pm 27.0 31.5 25.2 90 1.3 NE 11 15 6 8 1009.0 1009.0 22.8
25/09:30pm 27.1 31.8 24.9 88 1.5 ENE 9 13 5 7 1008.9 1008.9 22.8
25/09:00pm 27.2 31.8 24.8 87 1.7 NE 9 15 5 8 1009.1 1009.1 22.8
25/08:30pm 27.3 32.6 25.9 92 1.0 NE 9 13 5 7 1009.1 1009.1 22.8
25/08:00pm 27.5 34.2 25.9 91 1.1 NE 2 7 1 4 1008.8 1008.8 22.8
25/07:30pm 27.4 33.2 26.0 92 1.0 NNE 7 9 4 5 1008.3 1008.3 22.8
25/07:00pm 27.3 33.2 25.9 92 1.0 NNE 6 7 3 4 1007.6 1007.6 22.8
25/06:30pm 27.7 34.4 25.9 90 1.3 NW 2 11 1 6 1007.3 1007.3 22.8
25/06:00pm 27.6 33.9 26.0 91 1.1 S 4 7 2 4 1007.1 1007.1 22.8
25/05:30pm 27.5 32.3 25.7 90 1.3 SE 11 13 6 7 1007.5 1007.5 22.8
25/05:00pm 27.3 32.6 25.3 89 1.4 SSE 7 11 4 6 1007.2 1007.2 22.8
25/04:30pm 27.0 31.9 25.2 90 1.3 SSE 9 13 5 7 1006.6 1006.6 22.8
25/04:00pm 25.9 30.2 24.3 91 1.1 WSW 9 13 5 7 1007.3 1007.3 22.6
25/03:30pm 25.7 28.0 23.4 87 1.6 WNW 17 28 9 15 1006.7 1006.7 22.6
25/03:00pm 28.6 32.6 26.2 87 1.7 WNW 17 20 9 11 1006.9 1006.9 6.0
25/02:30pm 29.5 33.3 27.3 88 1.6 NNW 22 28 12 15 1006.7 1006.7 1.2
25/02:00pm 30.5 33.0 26.0 77 3.2 NNW 24 30 13 16 1007.0 1007.0 0.0
25/01:30pm 32.2 35.1 26.0 70 4.4 NW 22 28 12 15 1007.4 1007.4 0.0
25/01:00pm 32.6 37.2 25.4 66 5.1 NNW 11 19 6 10 1007.9 1007.9 0.0
25/12:30pm 32.9 37.8 25.9 66 5.0 N 11 24 6 13 1008.3 1008.3 0.0
25/12:00pm 31.7 35.6 24.8 67 4.9 N 13 20 7 11 1008.4 1008.4 0.0
25/11:30am 32.0 35.8 25.3 67 4.7 NNE 15 22 8 12 1008.8 1008.8 0.0
25/11:00am 32.5 36.0 24.8 64 5.4 NE 15 22 8 12 1009.1 1009.1 0.0
25/10:30am 32.5 35.3 23.7 59 6.1 NE 15 20 8 11 1009.4 1009.4 0.0
25/10:00am 32.4 35.3 23.9 61 5.9 ENE 15 22 8 12 1009.5 1009.5 0.0
25/09:30am 31.9 34.3 23.7 62 5.7 E 17 20 9 11 1009.5 1009.5 0.0
25/09:00am 31.2 32.9 23.0 61 5.6 E 19 24 10 13 1009.5 1009.5 0.2
25/08:30am 31.2 32.7 23.0 61 5.6 ESE 20 28 11 15 1009.5 1009.5 0.2
25/08:00am 31.2 33.2 23.6 64 5.3 E 19 26 10 14 1009.3 1009.3 0.2
25/07:30am 30.6 31.9 22.7 62 5.4 ESE 20 30 11 16 1009.1 1009.1 0.2
25/07:00am 29.3 31.3 23.0 69 4.3 SE 17 22 9 12 1008.7 1008.7 0.2
25/06:30am 28.3 30.6 22.8 72 3.7 SE 15 19 8 10 1008.4 1008.4 0.2
25/06:00am 28.1 31.1 22.6 72 3.7 SE 11 15 6 8 1008.4 1008.4 0.2
25/05:30am 28.4 31.6 23.1 73 3.6 SSE 11 13 6 7 1008.1 1008.1 0.2
25/05:00am 28.8 31.1 22.8 70 4.1 SE 15 17 8 9 1007.7 1007.7 0.2
25/04:30am 29.0 31.9 23.2 71 4.0 SE 13 15 7 8 1007.7 1007.7 0.2
25/04:00am 29.5 31.9 23.7 71 4.0 SE 17 20 9 11 1007.8 1007.8 0.2
25/03:30am 29.7 31.9 23.2 68 4.5 SE 17 20 9 11 1007.6 1007.6 0.2
25/03:00am 29.3 33.8 24.6 76 3.3 SE 9 13 5 7 1007.6 1007.6 0.2
25/02:30am 29.4 34.0 24.7 76 3.3 SE 9 11 5 6 1007.4 1007.4 0.2
25/02:00am 30.2 34.4 25.3 75 3.5 SSE 13 15 7 8 1007.5 1007.5 0.2
25/01:30am 29.9 34.6 26.1 80 2.7 SSE 13 15 7 8 1007.8 1007.8 0.2
25/01:00am 30.2 34.8 25.9 78 3.1 S 13 17 7 9 1008.2 1008.2 0.2
25/12:30am 30.0 34.6 26.0 79 2.8 SSE 13 17 7 9 1008.2 1008.2 0.2
25/12:00am 30.1 34.3 24.7 73 3.8 SSW 11 13 6 7 1008.1 1008.1 0.2
 
Date/Time
WST
Temp
°C
App
Temp
°C
Dew
Point
°C
Rel
Hum
%
Delta-T
°C
Wind Press
QNH
hPa
Press
MSL
hPa
Rain since
9am
mm
Dir  Spd
km/h
Gust
km/h
Spd
kts
Gust
kts
24/11:30pm 30.4 34.5 24.5 70 4.1 SW 11 15 6 8 1008.2 1008.2 0.2
24/11:00pm 30.8 34.9 25.2 72 4.0 SW 13 19 7 10 1008.2 1008.2 0.2
24/10:30pm 30.8 37.7 28.2 86 1.9 NW 9 11 5 6 1008.3 1008.3 0.2
24/10:00pm 31.2 37.2 29.0 88 1.6 NNW 17 20 9 11 1008.4 1008.4 0.2
24/09:30pm 30.7 37.7 25.8 75 3.5 CALM 0 0 0 0 1008.3 1008.3 0.2
24/09:00pm 31.1 37.8 25.4 71 4.0 CALM 0 0 0 0 1008.5 1008.5 0.2
24/08:30pm 31.7 38.2 25.1 68 4.7 CALM 0 0 0 0 1008.3 1008.3 0.2
24/08:00pm 32.1 37.2 24.7 65 5.2 S 6 7 3 4 1008.0 1008.0 0.2
24/07:30pm 32.1 39.3 26.2 71 4.2 CALM 0 0 0 0 1007.8 1007.8 0.2
24/07:00pm 33.5 37.1 22.0 51 7.9 SE 6 7 3 4 1007.5 1007.5 0.2
24/06:30pm 33.9 37.8 23.0 53 7.5 E 7 7 4 4 1007.4 1007.4 0.2
24/06:00pm 35.0 38.4 22.7 49 8.5 ESE 9 9 5 5 1007.1 1007.1 0.2
24/05:30pm 36.2 39.0 21.6 42 10.0 ESE 9 13 5 7 1007.0 1007.0 0.2
24/05:00pm 37.3 39.2 20.6 37 11.3 E 11 15 6 8 1006.6 1006.6 0.2
24/04:30pm 37.7 38.8 19.6 34 12.1 ESE 13 17 7 9 1006.6 1006.6 0.2
24/04:00pm 37.4 39.4 22.3 41 10.4 SE 15 24 8 13 1006.5 1006.5 0.2
24/03:30pm 37.3 40.6 22.6 42 10.2 S 9 13 5 7 1006.8 1006.8 0.2
24/03:00pm 36.9 41.5 24.1 48 9.0 SSW 7 11 4 6 1007.3 1007.3 0.2
24/02:30pm 36.3 41.1 23.5 47 8.9 WSW 4 9 2 5 1007.5 1007.5 0.2
24/02:00pm 33.8 38.6 22.2 50 7.9 CALM 0 4 0 2 1007.8 1007.8 0.2
24/01:30pm 35.1 39.5 25.0 56 7.2 S 11 17 6 9 1008.7 1008.7 0.0
24/01:00pm 35.4 40.0 24.7 54 7.6 S 9 15 5 8 1008.7 1008.7 0.0
24/12:30pm 34.6 38.8 24.8 56 6.9 S 11 15 6 8 1009.2 1009.2 0.0
24/12:00pm 34.2 39.3 25.6 61 6.1 S 9 15 5 8 1009.6 1009.6 0.0
24/11:30am 33.7 38.4 24.0 57 6.8 SSE 6 11 3 6 1010.1 1010.1 0.0
24/11:00am 33.6 38.3 25.6 63 5.7 W 11 19 6 10 1010.2 1010.2 0.0
24/10:30am 32.9 37.0 25.2 64 5.5 WNW 13 19 7 10 1010.3 1010.3 0.0
24/10:00am 32.8 36.8 25.6 66 5.1 NW 15 19 8 10 1010.8 1010.8 0.0
24/09:30am 31.5 35.2 23.3 61 5.7 NW 9 13 5 7 1011.4 1011.4 0.0
24/09:00am 31.0 34.9 22.9 62 5.6 SW 7 13 4 7 1011.2 1011.2 0.0
24/08:30am 30.8 35.3 23.7 66 4.9 WSW 6 9 3 5 1011.3 1011.3 0.0
24/08:00am 30.9 36.2 23.0 62 5.4 CALM 0 6 0 3 1011.2 1011.2 0.0
24/07:30am 29.5 34.5 23.9 72 3.9 NNE 4 7 2 4 1011.2 1011.2 0.0
24/07:00am 28.2 33.2 23.8 77 3.0 N 4 7 2 4 1011.1 1011.1 0.0
24/06:30am 27.1 31.6 23.6 81 2.4 NE 6 7 3 4 1011.1 1011.1 0.0
24/06:00am 26.0 30.1 23.3 85 1.8 ENE 7 11 4 6 1011.1 1011.1 0.0
24/05:30am 26.0 29.7 23.3 85 1.8 ENE 9 13 5 7 1010.8 1010.8 0.0
24/05:00am 26.5 31.2 24.0 86 1.7 ESE 6 9 3 5 1010.4 1010.4 0.0
24/04:30am 26.6 30.8 24.1 86 1.7 SSE 9 11 5 6 1009.7 1009.7 0.0
24/04:00am 27.3 30.8 24.2 83 2.1 S 13 19 7 10 1009.4 1009.4 0.0
24/03:30am 27.3 30.5 23.7 81 2.5 S 13 17 7 9 1009.1 1009.1 0.0
24/03:00am 27.3 30.3 24.0 82 2.3 S 15 17 8 9 1008.9 1008.9 0.0
24/02:30am 27.1 30.0 23.8 82 2.3 S 15 20 8 11 1008.8 1008.8 0.0
24/02:00am 27.1 30.2 23.6 81 2.4 S 13 17 7 9 1008.9 1008.9 0.0
24/01:30am 27.2 29.7 23.2 79 2.7 S 15 19 8 10 1009.2 1009.2 0.0
24/01:00am 27.6 29.0 22.5 74 3.5 SSW 19 24 10 13 1009.5 1009.5 0.0
24/12:30am 27.6 30.8 23.0 76 3.1 SSW 11 15 6 8 1009.8 1009.8 0.0
24/12:00am 28.1 30.3 22.6 72 3.7 SW 15 22 8 12 1010.1 1010.1 0.0
 
Date/Time
WST
Temp
°C
App
Temp
°C
Dew
Point
°C
Rel
Hum
%
Delta-T
°C
Wind Press
QNH
hPa
Press
MSL
hPa
Rain since
9am
mm
Dir  Spd
km/h
Gust
km/h
Spd
kts
Gust
kts
23/11:30pm 28.6 30.3 22.3 68 4.3 SW 17 22 9 12 1010.3 1010.3 0.0
23/11:00pm 29.0 31.0 23.0 70 4.1 SW 17 24 9 13 1010.5 1010.5 0.0
23/10:30pm 29.7 31.7 23.6 69 4.2 SW 19 28 10 15 1011.0 1011.0 0.0
23/10:00pm 29.9 34.1 24.8 74 3.6 SW 11 15 6 8 1010.8 1010.8 0.0
23/09:30pm 30.4 34.0 23.8 68 4.6 SW 11 15 6 8 1010.3 1010.3 0.0
23/09:00pm 31.4 34.7 24.5 67 4.8 SSW 15 19 8 10 1010.1 1010.1 0.0
23/08:30pm 31.8 35.3 24.9 67 4.9 SSW 15 19 8 10 1009.8 1009.8 0.0
23/08:00pm 33.1 38.8 25.9 66 5.2 SW 7 9 4 5 1009.4 1009.4 0.0
23/07:30pm 33.3 38.4 25.0 61 5.9 WSW 7 9 4 5 1008.9 1008.9 0.0
23/07:00pm 33.8 39.1 24.9 59 6.3 WSW 6 9 3 5 1008.3 1008.3 0.0
23/06:30pm 34.1 38.5 24.4 57 6.8 SW 9 11 5 6 1007.9 1007.9 0.0
23/06:00pm 35.0 38.8 24.0 53 7.7 SW 11 15 6 8 1008.1 1008.1 0.0
23/05:30pm 36.2 39.4 22.4 45 9.5 SSW 9 13 5 7 1007.8 1007.8 0.0
23/05:00pm 36.5 40.1 23.7 47 9.0 SSW 11 13 6 7 1007.4 1007.4 0.0
23/04:30pm 36.6 39.5 23.1 45 9.4 SSW 13 19 7 10 1007.4 1007.4 0.0
23/04:00pm 36.8 39.7 22.5 43 9.9 SSW 11 15 6 8 1007.4 1007.4 0.0
23/03:30pm 36.8 40.2 23.3 46 9.4 SW 11 17 6 9 1007.6 1007.6 0.0
23/03:00pm 36.5 40.1 24.4 50 8.6 SSW 13 20 7 11 1007.8 1007.8 0.0
23/02:30pm 36.3 40.4 25.2 53 7.9 SSW 13 19 7 10 1008.0 1008.0 0.0
23/02:00pm 35.7 38.7 24.0 51 8.2 SSW 15 20 8 11 1008.2 1008.2 0.0

Other Formats:

Comma delimited format used in spreadsheet applications
http://www.bom.gov.au/fwo/IDW60801/IDW60801.95205.axf

JavaScript Object Notation format (JSON) in row-major order
http://www.bom.gov.au/fwo/IDW60801/IDW60801.95205.json